Time;durP1;ratioP1;P1;durP2;ratioP2;P2;SDS_P1;SDS_P2;PMS_P1;PMS_P2;Temp;Humidity;BMP_temperature;BMP_pressure;BME280_temperature;BME280_humidity;BME280_pressure;Samples;Min_cycle;Max_cycle;Signal;HPM_P1;HPM_P2
2022/10/13 00:01:16;;;;;;;13.45;6.63;;;;;;;;;;5058421;28;20128;-74
2022/10/13 00:03:46;;;;;;;14.75;8.05;;;;;;;;;;5059191;28;20136;-73
2022/10/13 00:06:13;;;;;;;12.50;6.75;;;;;;;;;;5078161;28;20048;-74
2022/10/13 00:08:42;;;;;;;15.93;6.75;;;;;;;;;;5076505;28;20550;-74
2022/10/13 00:11:13;;;;;;;11.52;6.18;;;;;;;;;;5052497;28;21054;-74
2022/10/13 00:13:52;;;;;;;10.32;6.38;;;;;;;;;;5073501;28;20561;-73
2022/10/13 00:16:20;;;;;;;10.98;6.25;;;;;;;;;;5075686;28;20037;-73
2022/10/13 00:18:46;;;;;;;11.15;6.68;;;;;;;;;;5057257;28;20053;-74
2022/10/13 00:21:17;;;;;;;10.10;5.38;;;;;;;;;;5073506;28;20577;-74
2022/10/13 00:23:46;;;;;;;15.15;7.82;;;;;;;;;;5058714;28;20064;-74
2022/10/13 00:26:21;;;;;;;8.70;6.25;;;;;;;;;;5066943;28;20489;-74
2022/10/13 00:28:53;;;;;;;11.70;5.88;;;;;;;;;;5056893;28;20238;-74
2022/10/13 00:31:29;;;;;;;13.55;6.47;;;;;;;;;;5050988;28;20037;-74
2022/10/13 00:34:02;;;;;;;11.27;6.00;;;;;;;;;;5072846;28;20252;-74
2022/10/13 00:36:29;;;;;;;8.77;5.07;;;;;;;;;;5074798;28;20043;-74
2022/10/13 00:38:57;;;;;;;11.32;6.55;;;;;;;;;;5056658;28;20550;-73
2022/10/13 00:41:24;;;;;;;12.82;5.95;;;;;;;;;;5075297;28;20040;-73
2022/10/13 00:44:00;;;;;;;19.83;6.10;;;;;;;;;;5050843;28;20040;-74
2022/10/13 00:46:27;;;;;;;13.50;7.18;;;;;;;;;;5056983;28;20895;-74
2022/10/13 00:48:54;;;;;;;12.23;4.80;;;;;;;;;;5072310;28;20049;-74
2022/10/13 00:51:22;;;;;;;10.35;6.40;;;;;;;;;;5072681;28;20048;-74
2022/10/13 00:53:51;;;;;;;10.55;5.80;;;;;;;;;;5058268;28;20048;-74
2022/10/13 00:56:21;;;;;;;11.35;6.25;;;;;;;;;;5050978;28;21275;-75
2022/10/13 00:58:48;;;;;;;9.23;6.18;;;;;;;;;;5056116;28;20048;-74
2022/10/13 01:01:16;;;;;;;14.25;6.72;;;;;;;;;;5074279;28;20052;-74
2022/10/13 01:03:43;;;;;;;16.23;6.00;;;;;;;;;;5050831;28;20048;-74
2022/10/13 01:06:13;;;;;;;11.32;5.15;;;;;;;;;;5076247;28;20048;-74
2022/10/13 01:08:42;;;;;;;10.77;6.18;;;;;;;;;;5055021;28;20052;-73
2022/10/13 01:11:10;;;;;;;13.50;6.40;;;;;;;;;;5075930;28;20339;-74
2022/10/13 01:13:46;;;;;;;12.45;6.65;;;;;;;;;;5056078;28;20415;-73
2022/10/13 01:16:34;;;;;;;9.30;5.15;;;;;;;;;;5073784;28;20576;-74
2022/10/13 01:19:20;;;;;;;8.20;4.65;;;;;;;;;;5054570;28;20052;-73
2022/10/13 01:21:52;;;;;;;11.88;6.07;;;;;;;;;;5057529;28;20040;-74
2022/10/13 01:24:31;;;;;;;11.82;5.25;;;;;;;;;;5074257;28;20462;-73
2022/10/13 01:27:15;;;;;;;11.98;5.57;;;;;;;;;;5056787;28;20048;-74
2022/10/13 01:30:02;;;;;;;12.73;5.82;;;;;;;;;;5062609;28;20048;-73
2022/10/13 01:32:48;;;;;;;11.25;6.00;;;;;;;;;;5052605;28;20068;-74
2022/10/13 01:35:34;;;;;;;11.05;5.72;;;;;;;;;;5033747;28;20046;-74
2022/10/13 01:38:28;;;;;;;13.98;6.05;;;;;;;;;;5024638;28;20983;-73
2022/10/13 01:40:57;;;;;;;10.35;5.72;;;;;;;;;;5029966;28;20657;-74
2022/10/13 01:43:28;;;;;;;18.55;6.25;;;;;;;;;;5044114;28;20637;-74
2022/10/13 01:46:16;;;;;;;15.32;6.60;;;;;;;;;;5051145;28;20052;-74
2022/10/13 01:48:51;;;;;;;6.20;3.85;;;;;;;;;;5053345;28;20051;-74
2022/10/13 01:51:24;;;;;;;11.35;4.18;;;;;;;;;;5036267;28;20126;-74
2022/10/13 01:53:55;;;;;;;11.10;4.63;;;;;;;;;;5035250;28;20449;-74
2022/10/13 01:56:24;;;;;;;7.45;4.85;;;;;;;;;;5033736;28;20041;-74
2022/10/13 01:58:51;;;;;;;9.15;5.28;;;;;;;;;;5049198;28;20044;-74
2022/10/13 02:01:27;;;;;;;13.82;4.88;;;;;;;;;;5036539;28;20072;-73
2022/10/13 02:03:53;;;;;;;10.80;5.28;;;;;;;;;;5041317;28;20119;-73
2022/10/13 02:06:42;;;;;;;10.75;5.95;;;;;;;;;;5042860;28;20053;-73
2022/10/13 02:09:18;;;;;;;12.68;5.68;;;;;;;;;;5012711;28;20065;-73
2022/10/13 02:11:52;;;;;;;12.85;5.65;;;;;;;;;;5033198;28;20046;-73
2022/10/13 02:14:21;;;;;;;11.48;5.50;;;;;;;;;;5033470;28;20551;-74
2022/10/13 02:16:51;;;;;;;8.13;4.63;;;;;;;;;;5017559;28;20465;-74
2022/10/13 02:19:18;;;;;;;10.65;4.55;;;;;;;;;;5034338;28;20572;-73
2022/10/13 02:21:45;;;;;;;10.55;4.78;;;;;;;;;;5055293;28;20044;-73
2022/10/13 02:24:12;;;;;;;11.75;4.00;;;;;;;;;;5033115;28;20080;-74
2022/10/13 02:26:39;;;;;;;8.52;4.50;;;;;;;;;;5034587;28;20076;-74
2022/10/13 02:29:15;;;;;;;7.80;4.82;;;;;;;;;;5048103;28;20064;-73
2022/10/13 02:31:44;;;;;;;10.45;4.80;;;;;;;;;;5060982;28;20057;-73
2022/10/13 02:34:10;;;;;;;9.07;5.03;;;;;;;;;;5064273;28;20140;-74
2022/10/13 02:36:39;;;;;;;10.02;4.57;;;;;;;;;;5072257;28;20055;-74
2022/10/13 02:39:06;;;;;;;9.00;5.45;;;;;;;;;;5072842;28;20040;-73
2022/10/13 02:41:38;;;;;;;11.45;4.28;;;;;;;;;;5050643;28;20071;-73
2022/10/13 02:44:05;;;;;;;17.50;5.30;;;;;;;;;;5074425;28;20055;-73
2022/10/13 02:46:31;;;;;;;13.43;5.93;;;;;;;;;;5070927;28;20036;-74
2022/10/13 02:48:58;;;;;;;14.18;6.00;;;;;;;;;;5072835;28;20053;-76
2022/10/13 02:51:31;;;;;;;11.50;5.05;;;;;;;;;;5071518;28;20128;-75
2022/10/13 02:53:58;;;;;;;11.80;5.03;;;;;;;;;;5055994;28;20048;-74
2022/10/13 02:56:26;;;;;;;13.23;5.50;;;;;;;;;;5051516;28;20041;-74
2022/10/13 02:58:52;;;;;;;15.02;4.80;;;;;;;;;;5071331;28;20091;-74
2022/10/13 03:01:21;;;;;;;12.15;4.97;;;;;;;;;;5076750;28;20037;-75
2022/10/13 03:03:47;;;;;;;9.15;5.60;;;;;;;;;;5072813;28;20033;-74
2022/10/13 03:06:14;;;;;;;10.45;4.88;;;;;;;;;;5074180;28;20032;-74
2022/10/13 03:08:42;;;;;;;9.43;5.20;;;;;;;;;;5074963;28;20082;-74
2022/10/13 03:11:08;;;;;;;13.55;5.90;;;;;;;;;;5076877;28;20130;-74
2022/10/13 03:13:39;;;;;;;15.50;4.38;;;;;;;;;;5072883;28;20090;-74
2022/10/13 03:16:06;;;;;;;11.17;6.17;;;;;;;;;;5075380;28;20194;-74
2022/10/13 03:18:33;;;;;;;15.70;6.05;;;;;;;;;;5073868;28;20264;-74
2022/10/13 03:21:00;;;;;;;12.40;5.97;;;;;;;;;;5075734;28;20529;-74
2022/10/13 03:23:31;;;;;;;6.82;4.43;;;;;;;;;;5075800;28;20523;-74
2022/10/13 03:26:04;;;;;;;12.20;5.32;;;;;;;;;;5075372;28;20128;-74
2022/10/13 03:28:33;;;;;;;10.57;5.03;;;;;;;;;;5064090;28;20131;-74
2022/10/13 03:31:00;;;;;;;12.35;5.80;;;;;;;;;;5072997;28;20098;-73
2022/10/13 03:33:34;;;;;;;7.38;4.45;;;;;;;;;;5072849;28;20074;-73
2022/10/13 03:36:01;;;;;;;10.82;5.07;;;;;;;;;;5074841;28;20037;-74
2022/10/13 03:38:31;;;;;;;9.65;5.43;;;;;;;;;;5073945;28;20044;-74
2022/10/13 03:40:57;;;;;;;11.05;5.47;;;;;;;;;;5073811;28;20127;-74
2022/10/13 03:43:24;;;;;;;15.50;4.57;;;;;;;;;;5075410;28;20037;-74
2022/10/13 03:46:00;;;;;;;10.15;5.20;;;;;;;;;;5075407;28;20136;-74
2022/10/13 03:48:26;;;;;;;11.52;4.97;;;;;;;;;;5075219;28;20033;-74
2022/10/13 03:50:52;;;;;;;9.50;4.93;;;;;;;;;;5073087;28;20568;-73
2022/10/13 03:53:24;;;;;;;9.18;4.78;;;;;;;;;;5072662;28;20045;-74
2022/10/13 03:55:51;;;;;;;14.30;5.47;;;;;;;;;;5073307;28;20043;-74
2022/10/13 03:58:22;;;;;;;16.02;5.63;;;;;;;;;;5074552;28;20095;-74
2022/10/13 04:00:57;;;;;;;9.48;4.90;;;;;;;;;;5072267;28;20048;-74
2022/10/13 04:03:32;;;;;;;13.88;5.55;;;;;;;;;;5074464;28;20048;-73
2022/10/13 04:06:02;;;;;;;8.88;5.55;;;;;;;;;;5053247;28;20041;-73
2022/10/13 04:08:31;;;;;;;9.85;4.72;;;;;;;;;;5074600;28;20057;-73
2022/10/13 04:10:58;;;;;;;9.52;6.25;;;;;;;;;;5058604;28;20049;-74
2022/10/13 04:13:24;;;;;;;10.27;5.97;;;;;;;;;;5075474;28;20040;-73
2022/10/13 04:16:08;;;;;;;12.98;5.60;;;;;;;;;;5071502;28;20139;-73
2022/10/13 04:18:44;;;;;;;14.20;6.63;;;;;;;;;;5075708;28;20043;-74
2022/10/13 04:21:12;;;;;;;10.07;5.25;;;;;;;;;;5070727;28;20131;-74
2022/10/13 04:23:42;;;;;;;10.88;6.32;;;;;;;;;;5071754;28;20834;-73
2022/10/13 04:26:20;;;;;;;11.63;4.90;;;;;;;;;;5053008;28;20359;-73
2022/10/13 04:28:47;;;;;;;11.68;5.93;;;;;;;;;;5069122;28;20135;-74
2022/10/13 04:31:13;;;;;;;12.13;6.28;;;;;;;;;;5034346;28;20131;-73
2022/10/13 04:33:40;;;;;;;12.23;6.32;;;;;;;;;;5027998;28;20523;-73
2022/10/13 04:36:10;;;;;;;12.48;5.43;;;;;;;;;;5030973;28;20045;-73
2022/10/13 04:38:38;;;;;;;10.85;5.60;;;;;;;;;;5050811;28;20056;-74
2022/10/13 04:41:05;;;;;;;12.75;5.07;;;;;;;;;;5028048;28;20065;-74
2022/10/13 04:43:32;;;;;;;12.32;5.68;;;;;;;;;;5036390;28;20596;-73
2022/10/13 04:46:07;;;;;;;9.27;5.18;;;;;;;;;;5036038;28;20094;-74
2022/10/13 04:48:41;;;;;;;10.68;5.85;;;;;;;;;;5031720;28;20048;-73
2022/10/13 04:51:12;;;;;;;8.55;4.57;;;;;;;;;;5052763;28;20049;-74
2022/10/13 04:53:39;;;;;;;13.55;5.53;;;;;;;;;;5053495;28;20049;-74
2022/10/13 04:56:07;;;;;;;10.63;5.18;;;;;;;;;;5033302;28;20033;-74
2022/10/13 04:58:36;;;;;;;9.45;5.40;;;;;;;;;;5053973;28;20048;-73
2022/10/13 05:01:06;;;;;;;7.22;4.78;;;;;;;;;;5046409;28;20040;-74
2022/10/13 05:03:36;;;;;;;8.18;4.43;;;;;;;;;;5029219;28;20047;-73
2022/10/13 05:06:03;;;;;;;8.77;5.07;;;;;;;;;;5026103;28;20045;-73
2022/10/13 05:08:31;;;;;;;11.40;4.60;;;;;;;;;;5052888;28;20045;-80
2022/10/13 05:10:59;;;;;;;14.60;5.18;;;;;;;;;;5043309;28;20052;-79
2022/10/13 05:13:32;;;;;;;8.52;4.47;;;;;;;;;;5051743;28;20546;-85
2022/10/13 05:16:10;;;;;;;15.38;7.13;;;;;;;;;;5035931;28;20857;-79
2022/10/13 05:18:39;;;;;;;10.10;6.00;;;;;;;;;;5047674;28;20053;-78
2022/10/13 05:21:07;;;;;;;10.18;4.97;;;;;;;;;;5052459;28;20099;-79
2022/10/13 05:23:33;;;;;;;11.07;5.55;;;;;;;;;;5050975;28;20589;-74
2022/10/13 05:26:06;;;;;;;15.45;5.43;;;;;;;;;;5019835;28;20132;-74
2022/10/13 05:28:32;;;;;;;14.00;5.38;;;;;;;;;;5039437;28;20047;-74
2022/10/13 05:31:08;;;;;;;10.55;5.57;;;;;;;;;;5071029;28;20060;-74
2022/10/13 05:33:34;;;;;;;8.80;4.85;;;;;;;;;;5073207;28;20508;-74
2022/10/13 05:36:07;;;;;;;13.63;4.60;;;;;;;;;;5071163;28;20049;-74
2022/10/13 05:38:33;;;;;;;13.15;6.47;;;;;;;;;;5074278;28;20040;-73
2022/10/13 05:41:03;;;;;;;13.55;4.88;;;;;;;;;;5072058;28;20056;-74
2022/10/13 05:43:30;;;;;;;13.60;5.28;;;;;;;;;;5052613;28;21031;-74
2022/10/13 05:45:56;;;;;;;11.18;5.32;;;;;;;;;;5071918;28;20060;-74
2022/10/13 05:48:23;;;;;;;14.13;5.25;;;;;;;;;;5072427;28;20041;-74
2022/10/13 05:50:54;;;;;;;12.90;6.45;;;;;;;;;;5073735;28;20065;-79
2022/10/13 05:53:22;;;;;;;9.90;5.28;;;;;;;;;;5051547;28;21864;-73
2022/10/13 05:55:49;;;;;;;10.70;5.18;;;;;;;;;;5052507;28;20153;-73
2022/10/13 05:58:15;;;;;;;12.48;4.03;;;;;;;;;;5060749;28;20501;-74
2022/10/13 06:00:45;;;;;;;10.55;4.93;;;;;;;;;;5048646;28;20139;-74
2022/10/13 06:03:17;;;;;;;9.23;4.55;;;;;;;;;;5072100;28;20033;-74
2022/10/13 06:05:46;;;;;;;;;;;;;;;;;;5073667;28;20558;-73
2022/10/13 06:08:13;;;;;;;9.05;3.40;;;;;;;;;;5048632;28;19928;-73
2022/10/13 06:10:40;;;;;;;8.93;4.03;;;;;;;;;;5052944;28;20040;-74
2022/10/13 06:13:06;;;;;;;8.88;4.57;;;;;;;;;;5058838;28;20526;-74
2022/10/13 06:15:32;;;;;;;11.18;4.97;;;;;;;;;;5053506;28;20047;-73
2022/10/13 06:17:58;;;;;;;9.38;4.45;;;;;;;;;;5053406;28;20041;-73
2022/10/13 06:20:26;;;;;;;8.27;4.50;;;;;;;;;;5050578;28;20041;-73
2022/10/13 06:22:54;;;;;;;7.95;3.67;;;;;;;;;;5056395;28;20040;-74
2022/10/13 06:25:20;;;;;;;9.07;4.60;;;;;;;;;;5052749;28;20044;-74
2022/10/13 06:27:46;;;;;;;13.98;5.18;;;;;;;;;;5049127;28;20094;-74
2022/10/13 06:30:13;;;;;;;12.40;5.38;;;;;;;;;;5072071;28;20137;-74
2022/10/13 06:32:39;;;;;;;9.63;4.28;;;;;;;;;;5051466;28;20076;-74
2022/10/13 06:35:05;;;;;;;12.35;4.65;;;;;;;;;;5057417;28;20086;-75
2022/10/13 06:37:32;;;;;;;6.13;4.35;;;;;;;;;;5075925;28;20033;-74
2022/10/13 06:39:58;;;;;;;16.92;5.10;;;;;;;;;;5075265;28;20095;-74
2022/10/13 06:42:24;;;;;;;10.77;5.25;;;;;;;;;;5074434;28;20118;-74
2022/10/13 06:44:50;;;;;;;8.13;4.03;;;;;;;;;;5073584;28;20072;-75
2022/10/13 06:47:16;;;;;;;7.35;4.13;;;;;;;;;;5074471;28;20048;-74
2022/10/13 06:49:42;;;;;;;9.57;5.32;;;;;;;;;;5060658;28;20052;-75
2022/10/13 06:52:08;;;;;;;8.98;4.95;;;;;;;;;;5077899;28;20323;-75
2022/10/13 06:54:34;;;;;;;10.05;4.80;;;;;;;;;;5080118;28;20072;-74
2022/10/13 06:57:00;;;;;;;13.18;4.88;;;;;;;;;;5079275;28;20564;-73
2022/10/13 06:59:27;;;;;;;13.48;4.68;;;;;;;;;;5061015;28;20556;-73
2022/10/13 07:01:53;;;;;;;15.52;4.57;;;;;;;;;;5053249;28;20703;-73
2022/10/13 07:04:19;;;;;;;12.02;5.22;;;;;;;;;;5054149;28;20035;-73
2022/10/13 07:06:45;;;;;;;8.20;4.70;;;;;;;;;;5081764;28;20048;-74
2022/10/13 07:09:11;;;;;;;9.98;4.68;;;;;;;;;;5076703;28;20053;-74
2022/10/13 07:11:37;;;;;;;14.77;4.32;;;;;;;;;;5079541;28;20062;-73
2022/10/13 07:14:03;;;;;;;9.70;5.25;;;;;;;;;;5079024;28;20080;-73
2022/10/13 07:16:30;;;;;;;8.20;4.05;;;;;;;;;;5077594;28;20033;-73
2022/10/13 07:18:56;;;;;;;11.43;5.07;;;;;;;;;;5076924;28;20052;-74
2022/10/13 07:21:22;;;;;;;7.80;4.82;;;;;;;;;;5080463;28;20118;-73
2022/10/13 07:23:48;;;;;;;12.65;5.07;;;;;;;;;;5060232;28;20041;-73
2022/10/13 07:26:15;;;;;;;9.35;6.15;;;;;;;;;;5079605;28;20040;-74
2022/10/13 07:28:41;;;;;;;13.32;5.18;;;;;;;;;;5077383;28;20506;-74
2022/10/13 07:31:14;;;;;;;8.25;4.75;;;;;;;;;;5077994;28;20045;-73
2022/10/13 07:33:41;;;;;;;9.57;4.38;;;;;;;;;;5053443;28;20051;-73
2022/10/13 07:36:08;;;;;;;9.02;4.40;;;;;;;;;;5080373;28;20045;-74
2022/10/13 07:38:34;;;;;;;10.15;4.78;;;;;;;;;;5077781;28;20047;-73
2022/10/13 07:41:01;;;;;;;10.43;4.28;;;;;;;;;;5078064;28;20110;-73
2022/10/13 07:43:27;;;;;;;9.95;5.45;;;;;;;;;;5059288;28;20032;-73
2022/10/13 07:45:53;;;;;;;9.95;4.43;;;;;;;;;;5077343;28;22433;-74
2022/10/13 07:48:19;;;;;;;11.20;4.40;;;;;;;;;;5069275;28;20040;-74
2022/10/13 07:50:45;;;;;;;8.07;4.13;;;;;;;;;;5053832;28;20423;-73
2022/10/13 07:53:11;;;;;;;6.03;4.00;;;;;;;;;;5067477;28;20040;-73
2022/10/13 07:55:37;;;;;;;12.55;4.38;;;;;;;;;;5079456;28;20048;-74
2022/10/13 07:58:03;;;;;;;10.18;5.35;;;;;;;;;;5060660;28;20044;-73
2022/10/13 08:00:29;;;;;;;9.25;4.38;;;;;;;;;;5076828;28;20071;-74
2022/10/13 08:02:55;;;;;;;6.78;4.28;;;;;;;;;;5053679;28;20456;-73
2022/10/13 08:05:22;;;;;;;11.40;4.80;;;;;;;;;;5077966;28;20091;-73
2022/10/13 08:07:48;;;;;;;10.05;5.28;;;;;;;;;;5078084;28;20049;-73
2022/10/13 08:10:14;;;;;;;11.27;5.43;;;;;;;;;;5059842;28;20032;-74
2022/10/13 08:12:40;;;;;;;10.82;5.20;;;;;;;;;;5060081;28;20073;-73
2022/10/13 08:15:06;;;;;;;7.85;4.22;;;;;;;;;;5078395;28;20052;-73
2022/10/13 08:17:32;;;;;;;10.23;4.53;;;;;;;;;;5078152;28;20059;-73
2022/10/13 08:19:58;;;;;;;11.68;3.70;;;;;;;;;;5075821;28;20051;-73
2022/10/13 08:22:26;;;;;;;8.13;4.43;;;;;;;;;;5076729;28;20032;-73
2022/10/13 08:24:52;;;;;;;11.57;4.93;;;;;;;;;;5076912;28;20163;-73
2022/10/13 08:27:23;;;;;;;10.73;4.55;;;;;;;;;;5077677;28;20058;-73
2022/10/13 08:29:50;;;;;;;11.90;4.88;;;;;;;;;;5047531;28;20045;-73
2022/10/13 08:32:19;;;;;;;6.32;3.47;;;;;;;;;;5057231;28;20041;-73
2022/10/13 08:34:46;;;;;;;11.80;3.90;;;;;;;;;;5061481;28;20037;-73
2022/10/13 08:37:20;;;;;;;11.88;5.75;;;;;;;;;;5063359;28;20041;-73
2022/10/13 08:39:46;;;;;;;10.38;5.65;;;;;;;;;;5049318;28;20608;-73
2022/10/13 08:42:22;;;;;;;8.32;4.55;;;;;;;;;;5061290;28;20041;-74
2022/10/13 08:45:02;;;;;;;7.93;4.30;;;;;;;;;;5047590;28;20055;-74
2022/10/13 08:47:48;;;;;;;9.40;5.05;;;;;;;;;;5060299;28;20053;-73
2022/10/13 08:50:16;;;;;;;9.32;4.60;;;;;;;;;;5048671;28;20048;-74
2022/10/13 08:52:52;;;;;;;9.23;4.55;;;;;;;;;;5056435;28;20079;-74
2022/10/13 08:55:22;;;;;;;7.60;4.30;;;;;;;;;;5056509;28;20560;-73
2022/10/13 08:57:48;;;;;;;8.18;4.32;;;;;;;;;;5060685;28;20041;-73
2022/10/13 09:00:14;;;;;;;9.38;4.63;;;;;;;;;;5056640;28;20135;-74
2022/10/13 09:02:42;;;;;;;9.80;4.55;;;;;;;;;;5061311;28;20033;-74
2022/10/13 09:05:11;;;;;;;6.28;4.78;;;;;;;;;;5064280;28;20041;-73
2022/10/13 09:07:38;;;;;;;9.10;4.65;;;;;;;;;;5064356;28;20052;-73
2022/10/13 09:10:06;;;;;;;9.15;4.75;;;;;;;;;;5066314;28;20084;-73
2022/10/13 09:12:32;;;;;;;8.27;5.65;;;;;;;;;;5066878;28;20040;-73
2022/10/13 09:15:05;;;;;;;8.63;4.43;;;;;;;;;;5055911;28;20040;-73
2022/10/13 09:17:31;;;;;;;6.28;4.35;;;;;;;;;;5057956;28;20040;-73
2022/10/13 09:19:58;;;;;;;8.20;4.43;;;;;;;;;;5066173;28;20052;-73
2022/10/13 09:22:27;;;;;;;8.73;5.28;;;;;;;;;;5041289;28;20030;-74
2022/10/13 09:25:02;;;;;;;12.88;4.65;;;;;;;;;;5060017;28;21215;-74
2022/10/13 09:27:28;;;;;;;8.52;4.28;;;;;;;;;;5063663;28;21304;-73
2022/10/13 09:29:54;;;;;;;8.88;4.68;;;;;;;;;;5050565;28;20040;-73
2022/10/13 09:32:24;;;;;;;11.02;5.15;;;;;;;;;;5076590;28;20052;-73
2022/10/13 09:34:52;;;;;;;9.20;5.25;;;;;;;;;;5056668;28;20036;-74
2022/10/13 09:37:20;;;;;;;12.43;5.15;;;;;;;;;;5075365;28;20523;-74
2022/10/13 09:39:46;;;;;;;12.57;5.43;;;;;;;;;;5075125;28;20118;-74
2022/10/13 09:42:26;;;;;;;8.93;5.57;;;;;;;;;;5074985;28;20041;-74
2022/10/13 09:45:00;;;;;;;9.50;4.75;;;;;;;;;;5075356;28;20036;-77
2022/10/13 09:47:27;;;;;;;13.27;5.97;;;;;;;;;;5050988;28;20037;-75
2022/10/13 09:49:59;;;;;;;10.80;6.75;;;;;;;;;;5064772;28;20040;-73
2022/10/13 09:52:26;;;;;;;8.02;4.35;;;;;;;;;;5045549;28;20562;-74
2022/10/13 09:54:54;;;;;;;7.35;4.72;;;;;;;;;;5048529;28;20131;-74
2022/10/13 09:57:36;;;;;;;10.63;4.65;;;;;;;;;;5050424;28;20056;-74
2022/10/13 10:00:05;;;;;;;8.82;4.68;;;;;;;;;;5056846;28;20402;-73
2022/10/13 10:02:35;;;;;;;7.43;4.10;;;;;;;;;;5075121;28;20076;-73
2022/10/13 10:05:06;;;;;;;11.38;4.65;;;;;;;;;;5075917;28;20044;-74
2022/10/13 10:07:33;;;;;;;11.00;4.60;;;;;;;;;;5076291;28;20126;-74
2022/10/13 10:10:08;;;;;;;10.60;5.20;;;;;;;;;;5051078;28;20052;-74
2022/10/13 10:12:36;;;;;;;9.18;4.28;;;;;;;;;;5055144;28;20031;-74
2022/10/13 10:15:02;;;;;;;10.95;5.13;;;;;;;;;;5074205;28;20045;-74
2022/10/13 10:17:51;;;;;;;7.40;3.97;;;;;;;;;;5072705;28;20548;-75
2022/10/13 10:20:17;;;;;;;7.13;4.30;;;;;;;;;;5056523;28;20131;-74
2022/10/13 10:22:59;;;;;;;10.95;4.68;;;;;;;;;;5051340;28;20521;-74
2022/10/13 10:25:28;;;;;;;7.65;4.80;;;;;;;;;;5074248;28;20097;-75
2022/10/13 10:27:57;;;;;;;9.52;5.00;;;;;;;;;;5057730;28;20592;-74
2022/10/13 10:30:23;;;;;;;6.55;4.22;;;;;;;;;;4969648;28;1836529;-74
2022/10/13 10:33:08;;;;;;;6.05;4.20;;;;;;;;;;5057318;28;20120;-74
2022/10/13 10:35:47;;;;;;;8.00;3.47;;;;;;;;;;5054625;28;20744;-74
2022/10/13 10:38:33;;;;;;;8.38;3.92;;;;;;;;;;5037677;28;20961;-74
2022/10/13 10:41:04;;;;;;;7.18;3.85;;;;;;;;;;5052975;28;20049;-74
2022/10/13 10:43:30;;;;;;;10.23;4.40;;;;;;;;;;5056839;28;20535;-74
2022/10/13 10:45:58;;;;;;;7.90;4.43;;;;;;;;;;5038443;28;20045;-74
2022/10/13 10:48:26;;;;;;;9.73;4.13;;;;;;;;;;5053229;28;20045;-73
2022/10/13 10:50:52;;;;;;;6.80;3.63;;;;;;;;;;5054584;28;20044;-74
2022/10/13 10:53:18;;;;;;;5.45;3.88;;;;;;;;;;5038223;28;20551;-74
2022/10/13 10:55:53;;;;;;;9.18;3.85;;;;;;;;;;5054909;28;20037;-74
2022/10/13 10:58:55;;;;;;;8.63;3.88;;;;;;;;;;5054274;28;20043;-74
2022/10/13 11:01:40;;;;;;;10.88;4.70;;;;;;;;;;4988231;28;20100;-74
2022/10/13 11:04:42;;;;;;;8.48;4.47;;;;;;;;;;5034793;28;20041;-74
2022/10/13 11:07:12;;;;;;;7.40;4.20;;;;;;;;;;5012819;28;20038;-74
2022/10/13 11:09:41;;;;;;;8.38;4.00;;;;;;;;;;5028538;28;20583;-73
2022/10/13 11:12:29;;;;;;;8.50;3.80;;;;;;;;;;5053033;28;20041;-73
2022/10/13 11:15:02;;;;;;;8.82;4.15;;;;;;;;;;5026425;28;20056;-74
2022/10/13 11:17:28;;;;;;;6.03;3.83;;;;;;;;;;5055513;28;20041;-74
2022/10/13 11:19:55;;;;;;;7.60;4.43;;;;;;;;;;5041087;28;20052;-74
2022/10/13 11:22:26;;;;;;;7.82;3.78;;;;;;;;;;5034856;28;20167;-74
2022/10/13 11:24:53;;;;;;;7.07;3.73;;;;;;;;;;5040577;28;20037;-74
2022/10/13 11:27:19;;;;;;;7.45;3.95;;;;;;;;;;5059333;28;20642;-74
2022/10/13 11:29:46;;;;;;;7.35;4.07;;;;;;;;;;5040909;28;20053;-73
2022/10/13 11:32:29;;;;;;;5.18;3.38;;;;;;;;;;5040812;28;20049;-74
2022/10/13 11:34:58;;;;;;;7.45;3.28;;;;;;;;;;5054986;28;20478;-73
2022/10/13 11:37:29;;;;;;;9.25;3.90;;;;;;;;;;5029046;28;20043;-74
2022/10/13 11:40:00;;;;;;;8.05;4.10;;;;;;;;;;5057811;28;20080;-73
2022/10/13 11:42:26;;;;;;;7.03;4.68;;;;;;;;;;5058479;28;20045;-73
2022/10/13 11:44:53;;;;;;;11.05;4.00;;;;;;;;;;5033493;28;20037;-73
2022/10/13 11:47:28;;;;;;;5.85;3.90;;;;;;;;;;5059036;28;20163;-74
2022/10/13 11:50:04;;;;;;;6.40;4.18;;;;;;;;;;5040624;28;20041;-74
2022/10/13 11:52:33;;;;;;;6.97;3.35;;;;;;;;;;5057664;28;20095;-73
2022/10/13 11:55:04;;;;;;;8.07;3.78;;;;;;;;;;5059481;28;20083;-74
2022/10/13 11:57:31;;;;;;;7.22;3.40;;;;;;;;;;5034340;28;20637;-74
2022/10/13 11:59:57;;;;;;;5.00;3.20;;;;;;;;;;5039325;28;20371;-73
2022/10/13 12:02:25;;;;;;;6.07;3.47;;;;;;;;;;5042039;28;20041;-74
2022/10/13 12:05:00;;;;;;;10.25;3.45;;;;;;;;;;5041058;28;20127;-74
2022/10/13 12:07:29;;;;;;;5.50;3.30;;;;;;;;;;5034422;28;20033;-73
2022/10/13 12:09:56;;;;;;;9.23;3.60;;;;;;;;;;5041302;28;20523;-74
2022/10/13 12:12:23;;;;;;;5.43;2.47;;;;;;;;;;5038994;28;20071;-73
2022/10/13 12:14:53;;;;;;;6.60;3.00;;;;;;;;;;5049633;28;20052;-74
2022/10/13 12:17:19;;;;;;;5.80;2.72;;;;;;;;;;5058591;28;20041;-73
2022/10/13 12:19:45;;;;;;;4.05;2.63;;;;;;;;;;5056740;28;20048;-74
2022/10/13 12:22:11;;;;;;;10.25;2.75;;;;;;;;;;5034902;28;20521;-75
2022/10/13 12:24:37;;;;;;;4.72;2.80;;;;;;;;;;5034238;28;20052;-73
2022/10/13 12:27:11;;;;;;;4.97;2.15;;;;;;;;;;5057906;28;20095;-76
2022/10/13 12:29:38;;;;;;;3.95;2.38;;;;;;;;;;5040386;28;20088;-73
2022/10/13 12:32:17;;;;;;;6.25;3.08;;;;;;;;;;5058178;28;20129;-74
2022/10/13 12:34:43;;;;;;;5.07;2.58;;;;;;;;;;5055947;28;20114;-74
2022/10/13 12:37:25;;;;;;;3.63;2.45;;;;;;;;;;5058330;28;20056;-73
2022/10/13 12:39:51;;;;;;;10.27;2.55;;;;;;;;;;5039134;28;20052;-74
2022/10/13 12:42:17;;;;;;;7.70;2.95;;;;;;;;;;5058360;28;20475;-74
2022/10/13 12:44:44;;;;;;;4.05;1.77;;;;;;;;;;5055088;28;20155;-74
2022/10/13 12:47:29;;;;;;;4.05;2.30;;;;;;;;;;5058485;28;20240;-73
2022/10/13 12:50:15;;;;;;;4.05;2.40;;;;;;;;;;5057071;28;20045;-74
2022/10/13 12:52:41;;;;;;;5.88;2.88;;;;;;;;;;5056180;28;20040;-73
2022/10/13 12:55:13;;;;;;;9.38;2.22;;;;;;;;;;5057464;28;20041;-73
2022/10/13 12:57:40;;;;;;;6.15;2.65;;;;;;;;;;5056613;28;20073;-73
2022/10/13 13:00:26;;;;;;;3.83;2.10;;;;;;;;;;5056513;28;20043;-73
2022/10/13 13:02:55;;;;;;;7.63;2.40;;;;;;;;;;5056034;28;20041;-73
2022/10/13 13:05:48;;;;;;;7.05;2.63;;;;;;;;;;5039273;28;20036;-73
2022/10/13 13:08:23;;;;;;;5.72;2.78;;;;;;;;;;5036047;28;20575;-73
2022/10/13 13:11:00;;;;;;;4.28;2.50;;;;;;;;;;5039101;28;20087;-73
2022/10/13 13:13:26;;;;;;;7.72;2.63;;;;;;;;;;5057089;28;20041;-73
2022/10/13 13:15:53;;;;;;;4.78;2.30;;;;;;;;;;5056701;28;20470;-73
2022/10/13 13:18:22;;;;;;;4.50;2.60;;;;;;;;;;5057798;28;20057;-73
2022/10/13 13:20:48;;;;;;;6.82;2.88;;;;;;;;;;5057661;28;20045;-73
2022/10/13 13:23:17;;;;;;;5.40;2.58;;;;;;;;;;5032410;28;20045;-73
2022/10/13 13:25:43;;;;;;;4.45;2.67;;;;;;;;;;5031851;28;20067;-76
2022/10/13 13:28:12;;;;;;;8.07;3.35;;;;;;;;;;5034626;28;20048;-73
2022/10/13 13:30:38;;;;;;;7.78;3.20;;;;;;;;;;5056972;28;20166;-73
2022/10/13 13:33:04;;;;;;;5.72;2.83;;;;;;;;;;5055137;28;20060;-73
2022/10/13 13:35:30;;;;;;;5.68;2.67;;;;;;;;;;5056197;28;20045;-78
2022/10/13 13:37:56;;;;;;;8.45;2.85;;;;;;;;;;5032344;28;20055;-74
2022/10/13 13:40:24;;;;;;;5.30;3.03;;;;;;;;;;5046742;28;20037;-75
2022/10/13 13:42:50;;;;;;;6.03;2.95;;;;;;;;;;5039410;28;20864;-74
2022/10/13 13:45:17;;;;;;;6.95;3.03;;;;;;;;;;5039721;28;20535;-71
2022/10/13 13:47:44;;;;;;;8.27;3.17;;;;;;;;;;5057548;28;20048;-72
2022/10/13 13:50:15;;;;;;;4.35;2.88;;;;;;;;;;5032321;28;20045;-72
2022/10/13 13:52:41;;;;;;;;;;;;;;;;;;5057223;28;20041;-73
2022/10/13 13:55:08;;;;;;;8.40;3.78;;;;;;;;;;5048063;28;19921;-72
2022/10/13 13:57:34;;;;;;;6.43;3.67;;;;;;;;;;5057000;28;20036;-72
2022/10/13 14:00:00;;;;;;;10.82;3.50;;;;;;;;;;5038219;28;20053;-72
2022/10/13 14:02:27;;;;;;;7.45;3.20;;;;;;;;;;5056069;28;20140;-72
2022/10/13 14:04:53;;;;;;;9.35;3.38;;;;;;;;;;5055163;28;20044;-73
2022/10/13 14:07:19;;;;;;;6.68;3.60;;;;;;;;;;5032611;28;20976;-71
2022/10/13 14:09:45;;;;;;;6.72;3.20;;;;;;;;;;5031975;28;20053;-72
2022/10/13 14:12:11;;;;;;;5.78;3.35;;;;;;;;;;5053223;28;21283;-72
2022/10/13 14:14:37;;;;;;;6.03;3.13;;;;;;;;;;5057367;28;20125;-72
2022/10/13 14:17:04;;;;;;;6.25;3.13;;;;;;;;;;5056138;28;20037;-72
2022/10/13 14:19:30;;;;;;;7.85;3.58;;;;;;;;;;5057520;28;20037;-72
2022/10/13 14:21:56;;;;;;;7.20;3.35;;;;;;;;;;5052553;28;20040;-72
2022/10/13 14:24:23;;;;;;;10.25;4.13;;;;;;;;;;5057195;28;20075;-79
2022/10/13 14:26:49;;;;;;;8.77;4.00;;;;;;;;;;5053365;28;20046;-72
2022/10/13 14:29:15;;;;;;;9.90;3.67;;;;;;;;;;5064420;28;20063;-72
2022/10/13 14:31:41;;;;;;;9.80;5.03;;;;;;;;;;5072720;28;20029;-71
2022/10/13 14:34:08;;;;;;;6.65;3.78;;;;;;;;;;5077475;28;20096;-72
2022/10/13 14:36:34;;;;;;;10.35;4.00;;;;;;;;;;5074520;28;20048;-72
2022/10/13 14:39:00;;;;;;;8.20;4.10;;;;;;;;;;5074382;28;20052;-72
2022/10/13 14:41:26;;;;;;;6.53;3.58;;;;;;;;;;5074214;28;20041;-72
2022/10/13 14:43:55;;;;;;;7.25;3.50;;;;;;;;;;5074024;28;20036;-72
2022/10/13 14:46:22;;;;;;;4.10;2.97;;;;;;;;;;5075860;28;20048;-71
2022/10/13 14:48:48;;;;;;;6.28;3.92;;;;;;;;;;5072760;28;20924;-71
2022/10/13 14:51:15;;;;;;;5.32;3.55;;;;;;;;;;5075755;28;20474;-71
2022/10/13 14:53:42;;;;;;;5.82;3.33;;;;;;;;;;5077742;28;20040;-72